Beijing Capital International Airport
ZBAA : now visible

Airfield :











YOU CAN JOIN US ON...

 
LOGIN :

Register | Disclaimer

   EN    FR    IT 

 









Legend :    VFR   Marginal VFR   IFR   Intensive IFR   Very Intensive IFR
Visi :
Ceiling :
>= 8 km
>= 3000ft
5 to 8 km
1000 to 3000 ft
1500m to 5 km
500 to 1000 ft
800 to 1500m
200 to 500 ft
< 800m
< 200 ft
Symbols :   Thunderstorms  Fog  Heavy snow  Heavy precipitations  Wind > 20 kt







- Airport Elevation : 116 ft
- IATA code : PEK


ZBAA - Beijing Capital International

CURRENT METAR :
  • 192230Z 36003MPS CAVOK M04/M16 Q1028 NOSIG

EXPIRED METARs :
  • 192200Z 02003MPS CAVOK M03/M17 Q1028 NOSIG
  • 192130Z 02004MPS CAVOK M01/M16 Q1028 NOSIG
  • 192100Z 02003MPS CAVOK M02/M16 Q1027 NOSIG
  • 192030Z 01003MPS CAVOK M04/M16 Q1027 NOSIG
  • 192000Z 36002MPS CAVOK M06/M16 Q1027 NOSIG
  • 191930Z 36002MPS CAVOK M06/M16 Q1027 NOSIG

TAF TAF ZBAA
Valid from the 19 at 18:00 until the 20 at 18:00 UTC


191520Z 1918/2018 32004MPS CAVOK TX08/2007Z TNM05/21Z
ZBPE FIR / Asia



MET'MAP, your aeronautical weather chart ! - Copyright ORBIFLY December 2007 - Disclaimer

ORBIFLY MET'MAP TEAM :

Programming & Development : Alexandra Zaïnal
Concept & Development : Baudouin d'Aumeries
Co-Development & Prog : Marc-Olivier Méhu
Technical & hardware support : Manuel Goepfert

Contact : metmap@orbifly.com




SOURCES & CREDITS :

   NOAA       Earth
Advisory